^^
Your Local Weather - Clay, NY Station Historical Data
Daily Summary for October 10, 2017 Units:  English    Metric   Both
« Previous Day
Next Day »
Daily Weekly Monthly Yearly Custom
  High: Low: Average:
Temperature: 74.3 °F 56.0 °F 63.5 °F
Dew Point: 63.4 °F 54.1 °F 58.8 °F
Humidity: 96% 59% 86%
Wind Speed: 3.0mph 0.0mph 0.4mph
Wind Gust: 6.0mph - -
Wind- - West
Pressure: 30.12 in 29.96 in -
Precipitation: 0.00 in    
Historical Graphs
 
 
Tabular Data for October 10, 2017
Time Temperature Dew Point Pressure Wind Wind Speed Wind Gust Humidity Rainfall Rate (Hourly) solar
00:00 60.4 °F 59.0 °F 29.96 in Calm     95% 0.00 in 0 W/m2
00:06 60.0 °F 58.6 °F 29.96 in Calm     95% 0.00 in 0 W/m2
00:08 59.9 °F 58.5 °F 29.96 in Calm     95% 0.00 in 0 W/m2
00:14 59.6 °F 58.2 °F 29.96 in Calm     95% 0.00 in 0 W/m2
00:20 59.4 °F 58.0 °F 29.96 in Calm     95% 0.00 in 0 W/m2
00:26 59.2 °F 57.8 °F 29.96 in Calm     95% 0.00 in 0 W/m2
00:32 58.9 °F 57.5 °F 29.96 in Calm     95% 0.00 in 0 W/m2
00:38 58.7 °F 57.3 °F 29.96 in Calm     95% 0.00 in 0 W/m2
00:44 58.5 °F 57.1 °F 29.96 in Calm     95% 0.00 in 0 W/m2
00:50 58.4 °F 57.0 °F 29.96 in Calm     95% 0.00 in 0 W/m2
00:56 58.5 °F 57.1 °F 29.96 in Calm     95% 0.00 in 0 W/m2
01:02 58.4 °F 57.0 °F 29.97 in Calm     95% 0.00 in 0 W/m2
01:08 58.4 °F 57.0 °F 29.97 in Calm     95% 0.00 in 0 W/m2
01:14 58.3 °F 56.9 °F 29.97 in Calm     95% 0.00 in 0 W/m2
01:20 58.3 °F 56.9 °F 29.98 in Calm     95% 0.00 in 0 W/m2
01:26 58.7 °F 57.3 °F 29.98 in Calm     95% 0.00 in 0 W/m2
01:32 58.7 °F 57.3 °F 29.98 in Calm     95% 0.00 in 0 W/m2
01:38 58.8 °F 57.4 °F 29.98 in Calm     95% 0.00 in 0 W/m2
01:44 58.9 °F 57.5 °F 29.98 in Calm     95% 0.00 in 0 W/m2
01:50 58.9 °F 57.5 °F 29.98 in Calm     95% 0.00 in 0 W/m2
01:56 59.0 °F 57.6 °F 29.98 in Calm     95% 0.00 in 0 W/m2
02:04 59.2 °F 57.8 °F 29.99 in Calm     95% 0.00 in 0 W/m2
02:10 59.3 °F 57.9 °F 29.99 in Calm     95% 0.00 in 0 W/m2
02:16 59.4 °F 58.0 °F 29.99 in Calm     95% 0.00 in 0 W/m2
02:22 59.4 °F 58.0 °F 29.99 in Calm     95% 0.00 in 0 W/m2
02:28 59.4 °F 58.0 °F 29.99 in Calm     95% 0.00 in 0 W/m2
02:42 59.5 °F 58.1 °F 29.99 in Calm     95% 0.00 in 0 W/m2
02:48 59.5 °F 58.1 °F 29.99 in Calm     95% 0.00 in 0 W/m2
02:56 59.6 °F 58.2 °F 29.99 in Calm     95% 0.00 in 0 W/m2
03:02 59.8 °F 58.4 °F 29.99 in Calm     95% 0.00 in 0 W/m2
03:08 60.1 °F 58.7 °F 29.99 in Calm     95% 0.00 in 0 W/m2
03:14 60.2 °F 58.8 °F 29.99 in Calm     95% 0.00 in 0 W/m2
03:20 60.2 °F 58.8 °F 29.99 in Calm     95% 0.00 in 0 W/m2
03:26 60.3 °F 58.9 °F 29.99 in Calm     95% 0.00 in 0 W/m2
03:32 60.5 °F 59.1 °F 29.99 in Calm     95% 0.00 in 0 W/m2
03:38 60.5 °F 59.1 °F 29.99 in Calm     95% 0.00 in 0 W/m2
03:44 60.6 °F 59.2 °F 29.99 in Calm     95% 0.00 in 0 W/m2
03:50 60.7 °F 59.3 °F 29.99 in Calm     95% 0.00 in 0 W/m2
03:56 60.9 °F 59.5 °F 29.99 in Calm     95% 0.00 in 0 W/m2
04:02 61.1 °F 59.7 °F 29.99 in Calm     95% 0.00 in 0 W/m2
04:08 61.1 °F 59.7 °F 29.99 in Calm   1.0 mph 95% 0.00 in 0 W/m2
04:14 61.1 °F 59.7 °F 29.99 in Calm     95% 0.00 in 0 W/m2
04:20 61.1 °F 59.7 °F 29.99 in Calm     95% 0.00 in 0 W/m2
04:26 61.1 °F 59.7 °F 29.99 in Calm     95% 0.00 in 0 W/m2
04:32 60.9 °F 59.5 °F 29.99 in Calm     95% 0.00 in 0 W/m2
04:38 60.7 °F 59.3 °F 29.99 in Calm     95% 0.00 in 0 W/m2
04:44 60.6 °F 59.2 °F 29.99 in Calm     95% 0.00 in 0 W/m2
04:50 60.3 °F 58.9 °F 29.99 in Calm     95% 0.00 in 0 W/m2
04:56 60.1 °F 58.7 °F 30.00 in Calm     95% 0.00 in 0 W/m2
05:02 59.9 °F 58.5 °F 30.00 in Calm     95% 0.00 in 0 W/m2
05:08 59.8 °F 58.4 °F 30.00 in Calm     95% 0.00 in 0 W/m2
05:14 59.6 °F 58.2 °F 30.00 in Calm     95% 0.00 in 0 W/m2
05:20 59.6 °F 58.2 °F 30.00 in Calm     95% 0.00 in 0 W/m2
05:26 59.7 °F 58.3 °F 30.00 in Calm     95% 0.00 in 0 W/m2
05:32 59.9 °F 58.5 °F 30.00 in Calm     95% 0.00 in 0 W/m2
05:38 60.0 °F 58.6 °F 30.00 in Calm     95% 0.00 in 0 W/m2
05:44 60.0 °F 58.6 °F 30.00 in Calm     95% 0.00 in 0 W/m2
05:50 60.1 °F 58.7 °F 30.01 in Calm     95% 0.00 in 0 W/m2
05:56 60.5 °F 59.1 °F 30.01 in Calm     95% 0.00 in 0 W/m2
06:02 60.6 °F 59.2 °F 30.01 in Calm     95% 0.00 in 0 W/m2
06:08 60.5 °F 59.1 °F 30.01 in Calm     95% 0.00 in 0 W/m2
06:14 60.4 °F 59.0 °F 30.01 in Calm     95% 0.00 in 0 W/m2
06:20 60.6 °F 59.2 °F 30.01 in Calm     95% 0.00 in 0 W/m2
06:26 60.9 °F 59.8 °F 30.01 in Calm     96% 0.00 in 0 W/m2
06:32 61.0 °F 59.9 °F 30.01 in Calm     96% 0.00 in 0 W/m2
06:38 60.9 °F 59.8 °F 30.01 in Calm     96% 0.00 in 0 W/m2
06:44 61.0 °F 59.9 °F 30.02 in Calm     96% 0.00 in 0 W/m2
06:50 61.2 °F 59.8 °F 30.02 in Calm     95% 0.00 in 0 W/m2
06:56 61.3 °F 59.9 °F 30.02 in Calm     95% 0.00 in 0 W/m2
07:02 61.3 °F 60.2 °F 30.03 in Calm     96% 0.00 in 0 W/m2
07:08 61.3 °F 60.2 °F 30.03 in Calm     96% 0.00 in 0 W/m2
07:14 61.3 °F 59.9 °F 30.02 in Calm     95% 0.00 in 0 W/m2
07:20 61.2 °F 59.8 °F 30.03 in Calm     95% 0.00 in 0 W/m2
07:26 61.2 °F 59.8 °F 30.03 in Calm     95% 0.00 in 5 W/m2
07:32 61.3 °F 59.9 °F 30.03 in Calm     95% 0.00 in 7 W/m2
07:38 61.4 °F 60.2 °F 30.03 in Calm     96% 0.00 in 11 W/m2
07:44 61.5 °F 60.3 °F 30.03 in Calm     96% 0.00 in 14 W/m2
07:50 61.5 °F 60.3 °F 30.04 in Calm   2.0 mph 96% 0.00 in 25 W/m2
07:56 61.6 °F 60.4 °F 30.04 in Calm   2.0 mph 96% 0.00 in 39 W/m2
08:02 61.7 °F 60.3 °F 30.04 in NNW 1.0 mph 1.0 mph 95% 0.00 in 65 W/m2
08:08 61.8 °F 60.4 °F 30.04 in Calm   1.0 mph 95% 0.00 in 88 W/m2
08:14 62.0 °F 60.8 °F 30.04 in Calm     96% 0.00 in 65 W/m2
08:20 62.2 °F 61.0 °F 30.04 in Calm     96% 0.00 in 54 W/m2
08:26 62.3 °F 61.1 °F 30.04 in Calm     96% 0.00 in 62 W/m2
08:32 62.5 °F 61.0 °F 30.04 in NNW 1.0 mph 1.0 mph 95% 0.00 in 65 W/m2
08:38 62.6 °F 61.4 °F 30.04 in SSW 2.0 mph 5.0 mph 96% 0.00 in 67 W/m2
08:44 62.6 °F 61.4 °F 30.04 in SW 2.0 mph 2.0 mph 96% 0.00 in 76 W/m2
08:50 62.7 °F 61.5 °F 30.04 in Calm     96% 0.00 in 86 W/m2
08:56 62.7 °F 61.5 °F 30.05 in Calm     96% 0.00 in 69 W/m2
09:02 62.8 °F 61.6 °F 30.06 in Calm     96% 0.00 in 102 W/m2
09:08 62.9 °F 61.7 °F 30.05 in Calm     96% 0.00 in 135 W/m2
09:14 63.4 °F 62.2 °F 30.06 in Calm     96% 0.00 in 134 W/m2
09:20 63.7 °F 62.2 °F 30.06 in Calm   1.0 mph 95% 0.00 in 213 W/m2
09:26 63.8 °F 62.3 °F 30.06 in SW 1.0 mph 3.0 mph 95% 0.00 in 190 W/m2
09:32 63.7 °F 62.2 °F 30.07 in SW 1.0 mph 1.0 mph 95% 0.00 in 111 W/m2
09:38 63.5 °F 62.0 °F 30.07 in WSW 1.0 mph 2.0 mph 95% 0.00 in 67 W/m2
09:44 63.3 °F 61.8 °F 30.07 in WNW 1.0 mph 1.0 mph 95% 0.00 in 56 W/m2
09:50 63.1 °F 61.6 °F 30.07 in WNW 1.0 mph 1.0 mph 95% 0.00 in 53 W/m2
09:56 63.1 °F 61.6 °F 30.07 in Calm   1.0 mph 95% 0.00 in 116 W/m2
10:02 63.1 °F 61.6 °F 30.07 in Calm     95% 0.00 in 91 W/m2
10:08 63.3 °F 61.8 °F 30.07 in Calm     95% 0.00 in 84 W/m2
10:14 63.4 °F 61.9 °F 30.07 in Calm   1.0 mph 95% 0.00 in 81 W/m2
10:20 63.4 °F 61.6 °F 30.07 in Calm     94% 0.00 in 142 W/m2
10:26 63.6 °F 61.8 °F 30.07 in Calm     94% 0.00 in 213 W/m2
10:32 64.7 °F 62.9 °F 30.07 in Calm   3.0 mph 94% 0.00 in 174 W/m2
10:38 64.6 °F 62.5 °F 30.07 in Calm   3.0 mph 93% 0.00 in 179 W/m2
10:44 64.5 °F 62.1 °F 30.07 in WSW 1.0 mph 3.0 mph 92% 0.00 in 186 W/m2
10:50 65.5 °F 62.8 °F 30.07 in WSW 1.0 mph 1.0 mph 91% 0.00 in 183 W/m2
10:56 66.3 °F 62.3 °F 30.07 in Calm   1.0 mph 87% 0.00 in 355 W/m2
11:02 66.4 °F 61.8 °F 30.07 in WSW 1.0 mph 1.0 mph 85% 0.00 in 167 W/m2
11:08 65.8 °F 61.5 °F 30.07 in WSW 1.0 mph 2.0 mph 86% 0.00 in 160 W/m2
11:14 65.9 °F 61.9 °F 30.07 in Calm   2.0 mph 87% 0.00 in 325 W/m2
11:20 66.4 °F 62.1 °F 30.07 in Calm     86% 0.00 in 244 W/m2
11:26 66.8 °F 62.8 °F 30.07 in West 1.0 mph 1.0 mph 87% 0.00 in 559 W/m2
11:32 67.4 °F 62.7 °F 30.07 in West 1.0 mph 1.0 mph 85% 0.00 in 223 W/m2
11:38 67.9 °F 61.9 °F 30.07 in West 1.0 mph 3.0 mph 81% 0.00 in 735 W/m2
11:44 69.5 °F 63.4 °F 30.07 in West 1.0 mph 4.0 mph 81% 0.00 in 728 W/m2
11:50 69.6 °F 61.7 °F 30.07 in WSW 1.0 mph 6.0 mph 76% 0.00 in 686 W/m2
11:56 68.7 °F 60.8 °F 30.07 in SW 2.0 mph 6.0 mph 76% 0.00 in 710 W/m2
12:02 68.9 °F 61.0 °F 30.07 in WSW 3.0 mph 3.0 mph 76% 0.00 in 540 W/m2
12:08 68.7 °F 60.1 °F 30.07 in SW 2.0 mph 4.0 mph 74% 0.00 in 343 W/m2
12:14 69.2 °F 59.8 °F 30.07 in West 1.0 mph 2.0 mph 72% 0.00 in 294 W/m2
12:20 69.6 °F 59.8 °F 30.07 in SSW 1.0 mph 4.0 mph 71% 0.00 in 737 W/m2
12:26 69.4 °F 60.0 °F 30.07 in SW 2.0 mph 4.0 mph 72% 0.00 in 236 W/m2
12:32 70.1 °F 60.7 °F 30.07 in SW 2.0 mph 4.0 mph 72% 0.00 in 889 W/m2
12:50 68.2 °F 61.1 °F 30.08 in NW 1.0 mph 1.0 mph 78% 0.00 in 167 W/m2
12:56 69.6 °F 60.6 °F 30.07 in SW 1.0 mph 5.0 mph 73% 0.00 in 698 W/m2
13:02 71.7 °F 62.6 °F 30.07 in NNW 2.0 mph 2.0 mph 73% 0.00 in 782 W/m2
13:08 71.2 °F 61.3 °F 30.08 in SW 1.0 mph 3.0 mph 71% 0.00 in 726 W/m2
13:14 71.6 °F 60.5 °F 30.07 in West 1.0 mph 1.0 mph 68% 0.00 in 772 W/m2
13:20 70.9 °F 59.4 °F 30.07 in SW 1.0 mph 1.0 mph 67% 0.00 in 179 W/m2
13:26 71.0 °F 60.3 °F 30.07 in WSW 1.0 mph 3.0 mph 69% 0.00 in 842 W/m2
13:32 71.7 °F 61.4 °F 30.07 in NNW 2.0 mph 2.0 mph 70% 0.00 in 766 W/m2
13:38 72.5 °F 60.5 °F 30.07 in NNW 1.0 mph 2.0 mph 66% 0.00 in 710 W/m2
13:44 72.6 °F 60.6 °F 30.07 in NNW 1.0 mph 3.0 mph 66% 0.00 in 671 W/m2
13:50 71.4 °F 58.6 °F 30.07 in WSW 1.0 mph 1.0 mph 64% 0.00 in 330 W/m2
14:02 71.5 °F 59.5 °F 30.06 in SSW 1.0 mph 3.0 mph 66% 0.00 in 649 W/m2
14:08 71.4 °F 59.0 °F 30.06 in NW 2.0 mph 4.0 mph 65% 0.00 in 657 W/m2
14:14 72.4 °F 62.5 °F 30.06 in West 2.0 mph 2.0 mph 71% 0.00 in 650 W/m2
14:20 72.4 °F 59.1 °F 30.06 in West 1.0 mph 1.0 mph 63% 0.00 in 661 W/m2
14:26 72.8 °F 62.8 °F 30.06 in West 1.0 mph 1.0 mph 71% 0.00 in 629 W/m2
14:32 71.7 °F 59.7 °F 30.06 in West 1.0 mph 1.0 mph 66% 0.00 in 636 W/m2
14:38 72.1 °F 59.2 °F 30.06 in WNW 1.0 mph 3.0 mph 64% 0.00 in 603 W/m2
14:44 72.4 °F 59.5 °F 30.06 in SSW 1.0 mph 1.0 mph 64% 0.00 in 148 W/m2
14:50 72.9 °F 60.4 °F 30.06 in SW 1.0 mph 1.0 mph 65% 0.00 in 594 W/m2
14:56 73.2 °F 59.8 °F 30.06 in NW 1.0 mph 1.0 mph 63% 0.00 in 566 W/m2
15:03 73.2 °F 60.3 °F 30.06 in SW 1.0 mph 1.0 mph 64% 0.00 in 552 W/m2
15:08 72.8 °F 59.5 °F 30.06 in SW 2.0 mph 4.0 mph 63% 0.00 in 527 W/m2
15:14 72.6 °F 58.8 °F 30.06 in NNW 2.0 mph 3.0 mph 62% 0.00 in 504 W/m2
15:20 73.3 °F 59.9 °F 30.06 in SW 1.0 mph 1.0 mph 63% 0.00 in 489 W/m2
15:26 73.4 °F 60.5 °F 30.06 in SSW 1.0 mph 3.0 mph 64% 0.00 in 478 W/m2
15:32 73.9 °F 59.1 °F 30.06 in South 1.0 mph 3.0 mph 60% 0.00 in 462 W/m2
15:38 73.5 °F 59.7 °F 30.06 in WSW 2.0 mph 4.0 mph 62% 0.00 in 446 W/m2
15:44 73.8 °F 59.5 °F 30.06 in WSW 1.0 mph 2.0 mph 61% 0.00 in 429 W/m2
15:50 73.6 °F 58.4 °F 30.06 in Calm     59% 0.00 in 417 W/m2
15:56 73.9 °F 61.4 °F 30.06 in NW 1.0 mph 3.0 mph 65% 0.00 in 397 W/m2
16:02 74.3 °F 60.4 °F 30.06 in NW 1.0 mph 1.0 mph 62% 0.00 in 383 W/m2
16:08 74.0 °F 60.2 °F 30.05 in WSW 1.0 mph 5.0 mph 62% 0.00 in 371 W/m2
16:14 74.3 °F 60.0 °F 30.06 in WSW 1.0 mph 1.0 mph 61% 0.00 in 357 W/m2
16:20 74.3 °F 59.0 °F 30.06 in WSW 1.0 mph 1.0 mph 59% 0.00 in 345 W/m2
16:26 73.5 °F 59.2 °F 30.06 in North 2.0 mph 2.0 mph 61% 0.00 in 327 W/m2
16:32 73.4 °F 60.0 °F 30.06 in North 1.0 mph 2.0 mph 63% 0.00 in 285 W/m2
16:38 73.2 °F 58.9 °F 30.06 in NNW 1.0 mph 2.0 mph 61% 0.00 in 294 W/m2
16:44 73.2 °F 59.4 °F 30.06 in NNW 2.0 mph 2.0 mph 62% 0.00 in 274 W/m2
16:50 73.5 °F 58.8 °F 30.06 in NW 1.0 mph 1.0 mph 60% 0.00 in 255 W/m2
16:56 73.0 °F 59.2 °F 30.06 in NNW 1.0 mph 2.0 mph 62% 0.00 in 237 W/m2
17:02 72.5 °F 59.6 °F 30.06 in NW 2.0 mph 2.0 mph 64% 0.00 in 214 W/m2
17:08 72.1 °F 59.2 °F 30.06 in NW 1.0 mph 2.0 mph 64% 0.00 in 200 W/m2
17:14 71.9 °F 59.1 °F 30.06 in NW 1.0 mph 2.0 mph 64% 0.00 in 185 W/m2
17:20 71.4 °F 59.0 °F 30.06 in NW 1.0 mph 1.0 mph 65% 0.00 in 35 W/m2
17:26 71.0 °F 59.1 °F 30.06 in Calm   1.0 mph 66% 0.00 in 33 W/m2
17:32 70.5 °F 59.0 °F 30.07 in Calm     67% 0.00 in 30 W/m2
17:38 70.0 °F 58.5 °F 30.07 in Calm   1.0 mph 67% 0.00 in 28 W/m2
17:44 69.5 °F 58.1 °F 30.07 in Calm   3.0 mph 67% 0.00 in 26 W/m2
17:50 69.1 °F 58.1 °F 30.07 in Calm     68% 0.00 in 21 W/m2
17:56 68.7 °F 58.1 °F 30.07 in Calm     69% 0.00 in 18 W/m2
18:00 68.5 °F 57.9 °F 30.07 in Calm     69% 0.00 in 14 W/m2
18:06 68.1 °F 57.9 °F 30.07 in Calm     70% 0.00 in 11 W/m2
18:12 67.6 °F 59.8 °F 30.07 in Calm     76% 0.00 in 11 W/m2
18:18 67.2 °F 59.7 °F 30.07 in Calm     77% 0.00 in 7 W/m2
18:24 66.6 °F 59.2 °F 30.07 in Calm     77% 0.00 in 5 W/m2
18:28 66.1 °F 59.0 °F 30.07 in Calm     78% 0.00 in 0 W/m2
18:34 65.5 °F 59.2 °F 30.07 in Calm     80% 0.00 in 0 W/m2
18:40 64.9 °F 58.9 °F 30.07 in Calm     81% 0.00 in 0 W/m2
18:48 63.9 °F 58.3 °F 30.08 in Calm     82% 0.00 in 0 W/m2
18:54 63.4 °F 58.1 °F 30.08 in Calm     83% 0.00 in 0 W/m2
19:00 62.8 °F 57.9 °F 30.07 in Calm     84% 0.00 in 0 W/m2
19:06 62.3 °F 57.7 °F 30.07 in Calm     85% 0.00 in 0 W/m2
19:12 61.7 °F 57.1 °F 30.07 in Calm     85% 0.00 in 0 W/m2
19:18 61.3 °F 57.1 °F 30.08 in Calm     86% 0.00 in 0 W/m2
19:24 60.9 °F 57.0 °F 30.08 in Calm     87% 0.00 in 0 W/m2
19:30 60.5 °F 56.6 °F 30.08 in Calm     87% 0.00 in 0 W/m2
19:36 60.2 °F 56.3 °F 30.07 in Calm     87% 0.00 in 0 W/m2
19:42 60.1 °F 56.5 °F 30.08 in Calm     88% 0.00 in 0 W/m2
19:48 60.0 °F 56.7 °F 30.09 in Calm     89% 0.00 in 0 W/m2
19:54 59.8 °F 56.6 °F 30.09 in Calm     89% 0.00 in 0 W/m2
20:00 59.5 °F 56.3 °F 30.08 in Calm     89% 0.00 in 0 W/m2
20:06 59.3 °F 56.1 °F 30.08 in Calm     89% 0.00 in 0 W/m2
20:12 59.1 °F 56.2 °F 30.09 in Calm     90% 0.00 in 0 W/m2
20:18 58.9 °F 56.0 °F 30.09 in Calm     90% 0.00 in 0 W/m2
20:24 58.8 °F 55.9 °F 30.09 in Calm     90% 0.00 in 0 W/m2
20:30 58.5 °F 55.6 °F 30.09 in Calm     90% 0.00 in 0 W/m2
20:36 58.3 °F 55.4 °F 30.09 in Calm     90% 0.00 in 0 W/m2
20:42 58.3 °F 55.7 °F 30.10 in Calm     91% 0.00 in 0 W/m2
20:48 58.3 °F 55.7 °F 30.10 in Calm     91% 0.00 in 0 W/m2
20:54 58.2 °F 55.6 °F 30.10 in Calm     91% 0.00 in 0 W/m2
21:00 58.1 °F 55.5 °F 30.10 in Calm     91% 0.00 in 0 W/m2
21:06 58.0 °F 55.7 °F 30.10 in Calm     92% 0.00 in 0 W/m2
21:12 57.9 °F 55.6 °F 30.10 in Calm     92% 0.00 in 0 W/m2
21:18 57.8 °F 55.5 °F 30.10 in Calm     92% 0.00 in 0 W/m2
21:24 57.8 °F 55.5 °F 30.11 in Calm     92% 0.00 in 0 W/m2
21:30 57.8 °F 55.5 °F 30.11 in Calm     92% 0.00 in 0 W/m2
21:36 57.5 °F 55.2 °F 30.11 in Calm     92% 0.00 in 0 W/m2
21:42 57.4 °F 55.1 °F 30.11 in Calm     92% 0.00 in 0 W/m2
21:48 57.3 °F 55.0 °F 30.12 in Calm     92% 0.00 in 0 W/m2
21:54 57.3 °F 55.0 °F 30.12 in Calm     92% 0.00 in 0 W/m2
22:02 57.2 °F 54.9 °F 30.12 in Calm     92% 0.00 in 0 W/m2
22:08 57.1 °F 54.8 °F 30.12 in Calm     92% 0.00 in 0 W/m2
22:14 57.0 °F 55.0 °F 30.12 in Calm     93% 0.00 in 0 W/m2
22:20 56.9 °F 54.9 °F 30.12 in Calm     93% 0.00 in 0 W/m2
22:26 56.9 °F 54.9 °F 30.12 in Calm     93% 0.00 in 0 W/m2
22:32 56.7 °F 54.7 °F 30.12 in Calm     93% 0.00 in 0 W/m2
22:38 56.8 °F 54.8 °F 30.11 in Calm     93% 0.00 in 0 W/m2
22:44 56.8 °F 54.8 °F 30.11 in Calm     93% 0.00 in 0 W/m2
22:50 56.8 °F 54.8 °F 30.11 in Calm     93% 0.00 in 0 W/m2
22:56 56.8 °F 54.8 °F 30.11 in Calm     93% 0.00 in 0 W/m2
23:02 56.9 °F 54.9 °F 30.11 in Calm     93% 0.00 in 0 W/m2
23:08 56.8 °F 54.8 °F 30.11 in Calm     93% 0.00 in 0 W/m2
23:18 56.8 °F 54.8 °F 30.10 in Calm     93% 0.00 in 0 W/m2
23:24 56.8 °F 54.8 °F 30.10 in Calm     93% 0.00 in 0 W/m2
23:30 56.6 °F 54.6 °F 30.10 in Calm     93% 0.00 in 0 W/m2
23:36 56.5 °F 54.5 °F 30.10 in Calm     93% 0.00 in 0 W/m2
23:42 56.2 °F 54.2 °F 30.10 in Calm     93% 0.00 in 0 W/m2
23:44 56.2 °F 54.2 °F 30.10 in Calm     93% 0.00 in 0 W/m2
23:50 56.1 °F 54.1 °F 30.10 in Calm     93% 0.00 in 0 W/m2
23:56 56.0 °F 54.3 °F 30.10 in Calm     94% 0.00 in 0 W/m2
Country Meadow, Clay, NY, USA
Compliments of Weather Underground - 2 mb